createdAt,value
2022-09-04T00:01:10.900Z,19.20
2022-09-04T00:05:27.842Z,19.10
2022-09-04T00:09:45.522Z,19.10
2022-09-04T00:14:00.042Z,19.00
2022-09-04T00:18:15.164Z,19.00
2022-09-04T00:22:33.265Z,19.00
2022-09-04T00:26:50.585Z,19.00
2022-09-04T00:31:07.763Z,19.00
2022-09-04T00:35:24.383Z,19.00
2022-09-04T00:39:40.318Z,19.00
2022-09-04T00:44:17.224Z,19.00
2022-09-04T00:48:52.523Z,19.00
2022-09-04T00:53:24.243Z,19.00
2022-09-04T00:58:09.082Z,19.00
2022-09-04T01:02:28.066Z,19.00
2022-09-04T01:06:43.104Z,19.00
2022-09-04T01:11:10.821Z,19.00
2022-09-04T01:15:27.642Z,19.00
2022-09-04T01:19:51.426Z,18.90
2022-09-04T01:24:25.028Z,19.00
2022-09-04T01:28:45.045Z,18.90
2022-09-04T01:33:05.243Z,18.90
2022-09-04T01:37:30.744Z,18.90
2022-09-04T01:41:45.387Z,18.90
2022-09-04T01:46:27.625Z,18.90
2022-09-04T01:50:40.662Z,19.00
2022-09-04T01:54:57.562Z,19.00
2022-09-04T01:59:15.023Z,19.10
2022-09-04T02:03:30.306Z,19.00
2022-09-04T02:07:49.041Z,19.00
2022-09-04T02:12:09.266Z,19.10
2022-09-04T02:16:26.964Z,19.10
2022-09-04T02:20:36.586Z,19.10
2022-09-04T02:24:58.466Z,19.10
2022-09-04T02:29:15.464Z,19.10
2022-09-04T02:33:36.444Z,19.10
2022-09-04T02:37:58.246Z,19.10
2022-09-04T02:42:18.545Z,19.20
2022-09-04T02:46:38.141Z,19.20
2022-09-04T02:51:06.904Z,19.20
2022-09-04T02:55:45.563Z,19.20
2022-09-04T03:00:08.186Z,19.20
2022-09-04T03:04:23.646Z,19.20
2022-09-04T03:08:42.686Z,19.20
2022-09-04T03:13:02.742Z,19.30
2022-09-04T03:17:24.044Z,19.30
2022-09-04T03:21:46.346Z,19.20
2022-09-04T03:26:26.851Z,19.30
2022-09-04T03:30:39.361Z,19.30
2022-09-04T03:34:57.765Z,19.30
2022-09-04T03:39:16.846Z,19.30
2022-09-04T03:43:41.503Z,19.30
2022-09-04T03:48:05.106Z,19.30
2022-09-04T03:52:27.287Z,19.20
2022-09-04T03:57:09.446Z,19.20
2022-09-04T04:01:27.229Z,19.20
2022-09-04T04:05:54.164Z,19.30
2022-09-04T04:10:18.408Z,19.30
2022-09-04T04:14:51.745Z,19.30
2022-09-04T04:19:34.445Z,19.30
2022-09-04T04:24:21.405Z,19.30
2022-09-04T04:28:56.863Z,19.30
2022-09-04T04:33:38.662Z,19.30
2022-09-04T04:38:14.043Z,19.40
2022-09-04T04:42:31.105Z,19.40
2022-09-04T04:46:56.196Z,19.40
2022-09-04T04:51:21.363Z,19.40
2022-09-04T04:55:40.823Z,19.40
2022-09-04T05:00:06.064Z,19.40
2022-09-04T05:04:30.346Z,19.40
2022-09-04T05:08:46.765Z,19.40
2022-09-04T05:13:14.024Z,19.40
2022-09-04T05:17:34.344Z,19.40
2022-09-04T05:21:52.123Z,19.40
2022-09-04T05:26:12.223Z,19.40
2022-09-04T05:30:25.463Z,19.40
2022-09-04T05:34:42.986Z,19.40
2022-09-04T05:39:05.344Z,19.40
2022-09-04T05:43:27.385Z,19.40
2022-09-04T05:47:45.324Z,19.30
2022-09-04T05:52:17.626Z,19.40
2022-09-04T05:56:55.322Z,19.40
2022-09-04T06:01:16.822Z,19.40
2022-09-04T06:05:37.623Z,19.40
2022-09-04T06:10:00.191Z,19.40
2022-09-04T06:14:22.604Z,19.50
2022-09-04T06:18:53.207Z,19.50
2022-09-04T06:23:29.144Z,19.50
2022-09-04T06:27:59.166Z,19.50
2022-09-04T06:32:37.944Z,19.50
2022-09-04T06:37:07.048Z,19.50
2022-09-04T06:41:35.944Z,19.50
2022-09-04T06:46:02.166Z,19.60
2022-09-04T06:50:22.423Z,19.60
2022-09-04T06:54:43.495Z,19.60
2022-09-04T06:59:31.185Z,19.60
2022-09-04T07:03:52.106Z,19.50
2022-09-04T07:08:13.422Z,19.60
2022-09-04T07:12:40.204Z,19.60
2022-09-04T07:17:01.764Z,19.60
2022-09-04T07:21:21.067Z,19.60
2022-09-04T07:25:42.724Z,19.70
2022-09-04T07:29:56.463Z,19.70
2022-09-04T07:34:15.642Z,19.70
2022-09-04T07:38:35.044Z,19.70
2022-09-04T07:42:51.864Z,19.70
2022-09-04T07:47:13.083Z,19.70
2022-09-04T07:51:27.003Z,19.70
2022-09-04T07:55:41.705Z,19.80
2022-09-04T08:00:15.643Z,19.80
2022-09-04T08:04:46.569Z,19.80
2022-09-04T08:09:20.789Z,19.80
2022-09-04T08:13:46.310Z,19.90
2022-09-04T08:18:16.891Z,19.80
2022-09-04T08:22:35.849Z,19.90
2022-09-04T08:26:58.308Z,19.80
2022-09-04T08:31:12.627Z,19.80
2022-09-04T08:35:30.793Z,19.80
2022-09-04T08:39:49.760Z,19.80
2022-09-04T08:44:46.713Z,19.80
2022-09-04T08:49:34.103Z,19.70
2022-09-04T08:54:16.334Z,19.70
2022-09-04T08:58:59.495Z,19.70
2022-09-04T09:03:54.356Z,19.60
2022-09-04T09:08:41.113Z,19.60
2022-09-04T09:13:19.595Z,19.60
2022-09-04T09:17:39.755Z,19.60
2022-09-04T09:22:04.613Z,19.60
2022-09-04T09:26:28.632Z,19.60
2022-09-04T09:30:52.568Z,19.70
2022-09-04T09:35:46.735Z,19.80
2022-09-04T09:40:23.174Z,20.00
2022-09-04T09:45:10.634Z,20.10
2022-09-04T09:49:48.955Z,20.10
2022-09-04T09:54:39.313Z,20.20
2022-09-04T09:59:42.196Z,20.20
2022-09-04T10:04:40.578Z,20.20
2022-09-04T10:09:25.313Z,20.20
2022-09-04T10:14:24.397Z,20.40
2022-09-04T10:19:06.844Z,20.40
2022-09-04T10:23:47.454Z,20.60
2022-09-04T10:28:28.414Z,20.80
2022-09-04T10:33:27.650Z,20.90
2022-09-04T10:37:55.194Z,21.10
2022-09-04T10:42:17.034Z,21.40
2022-09-04T10:46:33.133Z,21.50
2022-09-04T10:51:06.015Z,21.40
2022-09-04T10:55:33.595Z,21.20
2022-09-04T11:00:06.175Z,21.00
2022-09-04T11:04:55.097Z,21.00
2022-09-04T11:09:21.554Z,20.80
2022-09-04T11:14:01.355Z,20.80
2022-09-04T11:18:53.959Z,20.70
2022-09-04T11:23:42.464Z,20.70
2022-09-04T11:28:16.334Z,20.70
2022-09-04T11:32:53.594Z,20.60
2022-09-04T11:37:41.394Z,20.50
2022-09-04T11:42:28.014Z,20.50
2022-09-04T11:47:03.673Z,20.60
2022-09-04T11:51:42.282Z,20.60
2022-09-04T11:56:15.933Z,20.70
2022-09-04T12:00:25.034Z,20.70
2022-09-04T12:04:55.024Z,20.60
2022-09-04T12:09:40.192Z,20.60
2022-09-04T12:14:02.994Z,20.70
2022-09-04T12:18:45.112Z,20.80
2022-09-04T12:23:19.414Z,20.90
2022-09-04T12:28:11.534Z,21.00
2022-09-04T12:32:50.254Z,21.00
2022-09-04T12:37:22.523Z,21.10
2022-09-04T12:41:41.453Z,21.10
2022-09-04T12:46:04.424Z,21.20
2022-09-04T12:50:34.294Z,21.30
2022-09-04T12:54:54.133Z,21.30
2022-09-04T12:59:20.075Z,21.20
2022-09-04T13:03:38.815Z,21.10
2022-09-04T13:07:57.775Z,21.20
2022-09-04T13:12:20.635Z,21.30
2022-09-04T13:16:37.293Z,21.20
2022-09-04T13:20:56.474Z,21.30
2022-09-04T13:25:15.434Z,21.40
2022-09-04T13:29:40.713Z,21.40
2022-09-04T13:34:02.055Z,21.50
2022-09-04T13:38:37.734Z,21.50
2022-09-04T13:43:32.521Z,21.40
2022-09-04T13:47:49.974Z,21.60
2022-09-04T13:52:07.934Z,21.70
2022-09-04T13:56:23.994Z,21.70
2022-09-04T14:00:36.355Z,21.70
2022-09-04T14:04:51.158Z,21.60
2022-09-04T14:09:05.393Z,21.70
2022-09-04T14:13:28.755Z,21.80
2022-09-04T14:17:46.673Z,21.70
2022-09-04T14:22:10.935Z,21.80
2022-09-04T14:26:30.855Z,21.80
2022-09-04T14:30:46.755Z,21.80
2022-09-04T14:35:04.354Z,21.80
2022-09-04T14:39:21.658Z,21.70
2022-09-04T14:43:44.796Z,21.70
2022-09-04T14:47:57.794Z,21.50
2022-09-04T14:52:14.815Z,21.50
2022-09-04T14:56:29.438Z,21.50
2022-09-04T15:00:59.453Z,21.40
2022-09-04T15:05:18.554Z,21.30
2022-09-04T15:09:32.151Z,21.20
2022-09-04T15:13:54.326Z,21.10
2022-09-04T15:18:16.255Z,21.00
2022-09-04T15:22:33.973Z,21.00
2022-09-04T15:26:47.477Z,20.90
2022-09-04T15:31:13.382Z,20.90
2022-09-04T15:35:33.475Z,20.80
2022-09-04T15:39:54.238Z,20.80
2022-09-04T15:44:12.684Z,20.60
2022-09-04T15:48:48.316Z,20.60
2022-09-04T15:53:11.216Z,20.60
2022-09-04T15:57:24.137Z,20.60
2022-09-04T16:01:43.543Z,20.60
2022-09-04T16:05:56.456Z,20.60
2022-09-04T16:10:15.232Z,20.60
2022-09-04T16:14:28.335Z,20.60
2022-09-04T16:18:52.837Z,20.60
2022-09-04T16:23:04.433Z,20.60
2022-09-04T16:27:21.996Z,20.60
2022-09-04T16:31:40.283Z,20.60
2022-09-04T17:05:11.856Z,20.30
2022-09-04T20:16:59.685Z,19.00
2022-09-04T20:21:18.663Z,19.10
2022-09-04T20:25:48.283Z,19.10
2022-09-04T20:30:02.004Z,19.10
2022-09-04T20:34:31.865Z,19.20
2022-09-04T20:38:49.583Z,19.10
2022-09-04T20:43:14.905Z,19.10
2022-09-04T20:52:42.642Z,19.20
2022-09-04T20:52:53.680Z,19.20
2022-09-04T20:58:41.727Z,19.10
2022-09-04T22:52:20.285Z,18.40
2022-09-04T22:56:58.824Z,18.50
2022-09-04T23:01:40.201Z,18.50
2022-09-04T23:07:11.772Z,18.50
2022-09-04T23:14:00.283Z,18.50
2022-09-04T23:15:48.381Z,18.50
2022-09-04T23:26:38.978Z,18.50
2022-09-04T23:26:49.026Z,18.50
2022-09-04T23:30:25.266Z,18.40
2022-09-04T23:35:13.882Z,18.50
2022-09-04T23:39:48.443Z,18.40
2022-09-04T23:44:35.029Z,18.30
2022-09-04T23:48:56.931Z,18.30
2022-09-04T23:53:23.554Z,18.30
2022-09-04T23:57:45.348Z,18.30
